x

8536110 - Cape May, Nj (cman4) Weather Station

11:54am - Tue 21st Feb 2017 All times are EST. -5 hours from GMT.

  • Wind
    11mph, 14mph gusts
  • Sea Temp 42°f
  • Air Temp 45°f
  • Sea Pressure 1026.9mb
  • 8536110 - Cape May, Nj
  • 8536110 - Cape May, Nj

More Historic Weather Station data

Upgrade to MSW Pro to gain access to the past 30 days of data for over 8000 Wavebouys and Weather Stations around the globe.

Join Pro

Comparision Forecast

View Surf forecast
   
Tue 02/21 11:54am 11 14 mph 1026.9mb 42f 45f
11:48am 10 14 mph 1027.1mb 42f 45f
11:42am 7 11 mph 1027.4mb 42f 45f
11:36am 13 15 mph 1027.3mb 41f 45f
11:30am 11 15 mph 1027.5mb 41f 45f
11:24am 13 16 mph 1027.5mb 41f 45f
11:18am 15 18 mph 1027.3mb 41f 45f
11:12am 13 15 mph 1027.5mb 41f 45f
11:06am 9 14 mph 1027.8mb 41f 45f
11:00am 10 14 mph 1027.7mb 41f 45f
10:54am 7 11 mph 1027.8mb 41f 45f
10:48am 9 15 mph 1027.7mb 41f 45f
10:42am 8 15 mph 1027.6mb 41f 45f
10:36am 9 16 mph 1027.3mb 41f 45f
10:30am 14 20 mph 1027.4mb 41f 45f
10:24am 8 15 mph 1027.1mb 42f 45f
10:18am 11 15 mph 1027.2mb 41f 45f
10:12am 11 15 mph 1027.4mb 42f 45f
10:06am 7 13 mph 1027.5mb 41f 45f
10:00am 9 16 mph 1027.5mb 42f 45f
9:54am 9 15 mph 1027.4mb 42f 45f
9:48am 11 17 mph 1027.4mb 42f 44f
9:42am 8 14 mph 1027.5mb 42f 44f
9:36am 11 17 mph 1027.5mb 42f 44f
9:30am 9 17 mph 1027.6mb 42f 44f
9:24am 9 16 mph 1027.5mb 42f 44f
9:18am 6 11 mph 1027.6mb 42f 44f
9:12am 7 15 mph 1027.6mb 42f 44f
9:06am 8 14 mph 1027.7mb 42f 44f
9:00am 7 13 mph 1027.8mb 42f 44f
8:54am 8 13 mph 1027.8mb 42f 44f
8:48am 7 13 mph 1027.7mb 42f 44f
8:42am 7 13 mph 1027.7mb 42f 44f
8:36am 7 13 mph 1027.7mb 42f 43f
8:30am 8 14 mph 1027.7mb 42f 43f
8:24am 7 11 mph 1027.7mb 42f 43f
8:18am 6 11 mph 1027.5mb 42f 43f
8:12am 3 7 mph 1027.5mb 42f 42f
8:06am 3 8 mph 1027.6mb 42f 41f
8:00am 3 7 mph 1027.6mb 42f 40f
7:54am 3 6 mph 1027.7mb 42f 40f
7:48am 3 6 mph 1027.8mb 42f 39f
7:42am 2 3 mph 1027.8mb 42f 39f
7:36am 2 3 mph 1027.9mb 42f 37f
7:30am 2 3 mph 1027.9mb 42f 36f
7:24am  -  3 mph 1028mb 42f 36f
7:18am  -  2 mph 1028mb 41f 36f
7:12am  -  2 mph 1028.1mb 42f 36f
7:06am 1 2 mph 1027.9mb 42f 36f
7:00am 2 3 mph 1027.8mb 42f 36f
6:54am 2
mph
1027.8mb 42f 35f
6:48am 2 3 mph 1027.6mb 42f 35f
6:42am 2
mph
1027.6mb 42f 35f
6:36am 5 6 mph 1027.4mb 42f 35f
6:30am 2 3 mph 1027.4mb 42f 36f
6:24am 3 5 mph 1027.4mb 42f 36f
6:18am 2 3 mph 1027.4mb 42f 37f
6:12am 2
mph
1027.4mb 42f 37f
6:06am 2
mph
1027.3mb 42f 37f
6:00am 1 2 mph 1027.3mb 42f 38f
5:54am 1 2 mph 1027.2mb 42f 39f
5:48am 2 3 mph 1027.1mb 42f 39f
5:42am 2 3 mph 1027.1mb 42f 39f
5:36am 3 5 mph 1027.1mb 42f 39f
5:30am 3 6 mph 1027mb 42f 39f
5:24am 3 6 mph 1027mb 42f 39f
5:18am 3 9 mph 1027mb 42f 39f
5:12am 3 6 mph 1026.9mb 42f 39f
5:06am 5 7 mph 1026.8mb 42f 39f
5:00am 5 8 mph 1026.7mb 42f 39f
4:54am 5 8 mph 1026.5mb 42f 39f
4:48am 6 11 mph 1026.6mb 42f 39f
4:42am 5 9 mph 1026.7mb 42f 39f
4:36am 6 9 mph 1026.7mb 42f 39f
4:30am 5 9 mph 1026.6mb 42f 39f
4:24am 5 10 mph 1026.7mb 42f 39f
4:18am 3 7 mph 1026.8mb 42f 39f
4:12am 3 7 mph 1026.8mb 42f 39f
4:06am 3 6 mph 1026.9mb 42f 39f
4:00am 3 6 mph 1026.8mb 42f 39f
3:54am 5 9 mph 1026.6mb 42f 39f
3:48am 5 8 mph 1026.7mb 42f 39f
3:42am 5 8 mph 1027mb 42f 39f
3:36am 5 7 mph 1027.1mb 42f 39f
3:30am 6 8 mph 1026.9mb 42f 40f
3:24am 5 6 mph 1026.8mb 42f 40f
3:18am 6 10 mph 1026.7mb 42f 40f
3:12am 5 7 mph 1026.6mb 42f 40f
3:06am 7 13 mph 1026.3mb 42f 40f
3:00am 6 9 mph 1026.3mb 42f 40f
2:54am 8 11 mph 1026.4mb 42f 40f
2:48am 6 9 mph 1026.6mb 42f 40f
2:42am 6 10 mph 1026.7mb 42f 40f
2:36am 8 11 mph 1026.7mb 42f 40f
2:30am 6 10 mph 1026.7mb 42f 40f
2:24am 9 15 mph 1026.8mb 42f 40f
2:18am 6 9 mph 1026.9mb 42f 40f
2:12am 7 10 mph 1027mb 41f 40f
2:06am 8 9 mph 1027mb 41f 40f
2:00am 6 8 mph 1026.8mb 41f 40f
1:54am 7 15 mph 1026.8mb 41f 40f
1:48am 7 10 mph 1026.8mb 41f 40f
1:42am 8 14 mph 1026.7mb 41f 40f
1:36am 7 13 mph 1026.7mb 41f 40f
1:30am 7 11 mph 1026.9mb 41f 41f
1:24am 6 10 mph 1027mb 41f 41f
1:18am 7 13 mph 1026.9mb 41f 41f
1:12am 9 13 mph 1027.1mb 41f 41f
1:06am 7 10 mph 1026.9mb 41f 41f
1:00am 8 11 mph 1026.9mb 41f 41f
12:54am 9 14 mph 1026.8mb 41f 41f
12:48am 10 15 mph 1026.8mb 41f -
12:42am 10 15 mph 1026.8mb 41f -
12:36am 10 15 mph 1026.7mb 41f -
12:30am 13 18 mph 1026.7mb 41f 42f
12:24am 9 16 mph 1026.7mb 41f 42f
12:18am 8 13 mph 1026.8mb 41f 42f
12:12am 10 17 mph 1026.6mb 41f 42f
12:06am 11 17 mph 1026.7mb 41f 42f
12:00am 10 15 mph 1026.7mb 41f 42f
Mon 02/20 11:54pm 13 20 mph 1026.8mb 41f 43f
11:48pm 11 16 mph 1026.8mb 41f 43f
11:42pm 11 18 mph 1026.8mb 41f 43f
11:36pm 9 16 mph 1026.8mb 41f 43f
11:30pm 10 17 mph 1026.8mb 41f 43f
11:24pm 9 14 mph 1026.8mb 41f 43f
11:18pm 8 13 mph 1026.7mb 41f 43f
11:12pm 8 11 mph 1026.8mb 41f 43f
11:06pm 9 15 mph 1026.8mb 41f 44f
11:00pm 9 14 mph 1026.6mb 41f 43f
10:54pm 8 13 mph 1026.6mb 41f 43f
10:48pm 8 11 mph 1026.5mb 41f 43f
10:42pm 7 10 mph 1026.5mb 41f 43f
10:36pm 3 6 mph 1026.4mb 41f 41f
10:30pm 5 7 mph 1026.1mb 41f 44f
10:24pm 5 6 mph 1026.1mb 41f 42f
10:18pm 2 5 mph 1026mb 41f 40f
10:12pm 3 5 mph 1026mb 41f 43f
10:06pm 6 8 mph 1025.8mb 41f 44f
10:00pm 5 7 mph 1025.8mb 41f 43f
9:54pm 5 7 mph 1025.7mb 42f 44f
9:48pm 3 5 mph 1025.6mb 41f 41f
9:42pm 5 8 mph 1025.6mb 41f 46f
9:36pm 5 7 mph 1025.5mb 42f 45f
9:30pm 6 9 mph 1025.4mb 42f 44f
9:24pm 2 5 mph 1025.4mb 42f 41f
9:18pm 3 6 mph 1025.4mb 42f 45f
9:12pm 3 7 mph 1025.2mb 42f 44f
9:06pm 2 3 mph 1025.2mb 42f 43f
9:00pm 6
mph
1025.2mb 42f 43f
8:48pm 3 5 mph 1025.1mb 42f 44f
8:42pm 6
mph
1025.2mb 42f 44f
8:36pm 5 6 mph 1025mb 42f 44f
8:30pm 3 6 mph 1025mb 42f 44f
8:24pm 5 6 mph 1025mb 42f 45f
8:18pm 3 5 mph 1025mb 42f 45f
8:12pm 5
mph
1025mb 42f 45f
8:06pm 5 6 mph 1025mb 42f 44f
8:00pm 6 8 mph 1024.9mb 42f 44f
7:54pm 3 6 mph 1024.7mb 42f 48f
7:48pm 6 7 mph 1024.7mb 42f 49f
7:42pm 3 6 mph 1024.6mb 42f 47f
7:36pm 5 6 mph 1024.5mb 42f 50f
7:30pm 5 7 mph 1024.3mb 42f 49f
7:24pm 3 6 mph 1024.2mb 42f 49f
7:18pm 3 5 mph 1024.2mb 41f 46f
7:12pm 2 5 mph 1024.2mb 41f 46f
7:06pm 2 3 mph 1024.2mb 41f 48f
7:00pm 2
mph
1024.3mb 41f 46f
6:54pm 2
mph
1024.2mb 41f 45f
6:48pm  -  1 mph 1024.2mb 41f 45f
6:42pm  -  mph 1024.2mb 41f 46f
6:36pm 1 2 mph 1024mb 42f 46f
6:30pm 1 2 mph 1024mb 42f 47f
6:24pm 1 2 mph 1023.9mb 42f 48f
6:18pm 2 5 mph 1023.8mb 42f 48f
6:12pm 5 6 mph 1023.7mb 42f 48f
6:06pm 5 6 mph 1023.6mb 42f 48f
6:00pm 1 5 mph 1023.6mb 42f 48f
5:54pm 2 3 mph 1023.5mb 42f 48f
5:48pm 2 3 mph 1023.4mb 42f 49f
5:42pm  -  5 mph 1023.2mb 42f 49f
5:36pm 2 5 mph 1022.8mb 42f 49f
5:30pm 5 6 mph 1022.8mb 42f 49f
5:24pm 3 5 mph 1022.8mb 42f 48f
5:18pm 5 6 mph 1022.6mb 42f 48f
5:12pm 5 7 mph 1022.5mb 42f 48f
5:06pm 6 8 mph 1022.4mb 42f 48f
5:00pm 8 10 mph 1022.4mb 42f 48f
4:54pm 6 8 mph 1022.4mb 42f 49f
4:48pm 6 8 mph 1022.3mb 42f 48f
4:42pm 3 6 mph 1022.3mb 43f 48f
4:36pm 5 8 mph 1022.3mb 43f 47f
4:30pm 3 7 mph 1022.3mb 43f 48f
4:24pm 5 8 mph 1022.2mb 43f 47f
4:18pm 5 8 mph 1022.2mb 43f 47f
4:12pm 6 9 mph 1022.1mb 43f 48f
4:06pm 9 11 mph 1022.1mb 43f 48f
4:00pm 3 7 mph 1022.1mb 43f 48f
3:54pm 6 11 mph 1022mb 43f 48f
3:48pm 9 14 mph 1022mb 43f 48f
3:42pm 9 14 mph 1021.9mb 43f 48f
3:36pm 13 14 mph 1021.8mb 43f 48f
3:30pm 8 11 mph 1021.8mb 43f 48f
3:24pm 8 10 mph 1021.8mb 43f 49f
3:18pm 9 10 mph 1021.7mb 43f 49f
3:12pm 9 13 mph 1021.7mb 43f 48f
3:06pm 9 13 mph 1021.6mb 43f 48f
3:00pm 9 13 mph 1021.6mb 43f 49f
2:54pm 11 17 mph 1021.4mb 43f 49f
2:48pm 11 15 mph 1021.3mb 43f 49f
2:42pm 10 16 mph 1021.4mb 43f 48f
2:36pm 11 14 mph 1021.4mb 43f 49f
2:30pm 6 10 mph 1021.4mb 43f 50f
2:24pm 6 13 mph 1021.4mb 43f 50f
2:18pm 6 11 mph 1021.4mb 42f 50f
2:12pm 6 14 mph 1021.4mb 42f 50f
2:06pm 6 13 mph 1021.4mb 42f 50f
2:00pm 7 15 mph 1021.5mb 42f 50f
1:54pm 6 14 mph 1021.6mb 42f 50f
1:48pm 6 10 mph 1021.6mb 42f 50f
1:42pm 7 13 mph 1021.7mb 42f 50f
1:36pm 7 13 mph 1021.7mb 42f 49f
1:30pm 9 13 mph 1021.7mb 42f 48f
1:24pm 11 15 mph 1021.8mb 42f 48f
1:18pm 10 14 mph 1021.9mb 42f 48f
1:12pm 13 16 mph 1021.9mb 42f 48f
1:06pm 13 16 mph 1022mb 42f 48f
1:00pm 13 17 mph 1022.2mb 42f 48f
12:54pm 13 15 mph 1022mb 42f 48f
12:48pm 13 17 mph 1022mb 42f 48f
12:42pm 13 15 mph 1022mb 42f 48f
12:36pm 11 15 mph 1022.1mb 42f 47f
12:30pm 11 15 mph 1022.3mb 42f 47f
12:24pm 10 15 mph 1022.3mb 41f 48f
12:18pm 9 11 mph 1022.3mb 41f 48f
12:12pm 10 14 mph 1022.3mb 41f 48f
12:06pm 9 13 mph 1022.2mb 41f 48f
12:00pm 8 11 mph 1022.3mb 41f 47f
11:54am 9 13 mph 1022.4mb 41f 47f
11:48am 10 14 mph 1022.4mb 41f 47f
11:42am 10 14 mph 1022.4mb 41f 47f
11:36am 10 14 mph 1022.5mb 41f 47f
11:30am 10 13 mph 1022.5mb 41f 46f
11:24am 11 14 mph 1022.7mb 41f 46f
11:18am 11 14 mph 1022.9mb 41f 46f
11:12am 11 15 mph 1022.8mb 41f 46f
11:06am 10 14 mph 1022.7mb 41f 46f
11:00am 9 11 mph 1022.8mb 41f 47f
10:54am 9 11 mph 1022.7mb 41f 46f
10:48am 7 9 mph 1022.7mb 40f 46f
10:42am 8 9 mph 1022.7mb 40f 47f
10:36am 6 10 mph 1022.7mb 40f 48f
10:30am 7 10 mph 1022.8mb 40f 47f
10:24am 7 13 mph 1022.9mb 40f 47f
10:18am 7 11 mph 1022.9mb 40f 47f
10:12am 9 11 mph 1022.9mb 40f 46f
10:06am 6 8 mph 1022.9mb 40f 47f
10:00am 6 7 mph 1022.9mb 40f 47f
9:54am 7 8 mph 1023mb 40f 47f
9:48am 6 7 mph 1023mb 40f 47f
9:42am 6 8 mph 1023mb 41f 47f
9:36am 8 9 mph 1022.8mb 41f 47f
9:30am 5 7 mph 1022.8mb 41f 47f
9:24am 5 6 mph 1022.8mb 41f 47f
9:18am 5 6 mph 1022.8mb 41f 47f
9:12am 6 7 mph 1022.9mb 41f 47f
9:06am 6 7 mph 1022.9mb 41f 48f
9:00am 5 7 mph 1022.9mb 41f 49f
8:54am 5 7 mph 1022.8mb 41f 49f
8:48am 5 6 mph 1022.7mb 41f 49f
8:42am 6 9 mph 1022.8mb 41f 50f
8:36am 6 8 mph 1022.7mb 41f 50f
8:30am 6 9 mph 1022.6mb 41f 51f
8:24am 6 9 mph 1022.4mb 41f 51f
8:18am 5 7 mph 1022.3mb 41f 51f
8:12am 6 8 mph 1022.2mb 41f 51f
8:06am 3 6 mph 1022.1mb 41f 50f
8:00am 6 8 mph 1022mb 41f 50f
7:54am 6 9 mph 1021.9mb 41f 49f
7:48am 5 7 mph 1021.7mb 41f 49f
7:42am 6 10 mph 1021.6mb 41f 48f
7:36am 6 9 mph 1021.6mb 41f 48f
7:30am 6 9 mph 1021.5mb 41f 48f
7:24am 6 9 mph 1021.3mb 41f 48f
7:18am 3 8 mph 1021.2mb 41f 48f
7:12am 6 9 mph 1021.1mb 41f 47f
7:06am 6 7 mph 1020.9mb 41f 47f
7:00am 3 6 mph 1020.8mb 41f 47f
6:54am 3 5 mph 1020.7mb 41f 46f
6:48am 2 5 mph 1020.5mb 41f 45f
6:42am 5 6 mph 1020.4mb 41f 44f
6:36am 3 7 mph 1020.3mb 41f 44f
6:30am 2 6 mph 1020.2mb 41f 42f
6:24am 2 3 mph 1020mb 41f 42f
6:18am 2 3 mph 1019.9mb 41f 42f
6:12am 2 3 mph 1019.9mb 41f 42f
6:06am 3 6 mph 1019.9mb 41f 42f
6:00am 2 5 mph 1019.7mb 41f 42f
5:54am 2 6 mph 1019.7mb 41f 43f
5:48am 3 6 mph 1019.6mb 41f 43f
5:42am 1 3 mph 1019.5mb 41f 42f
5:36am 1 2 mph 1019.4mb 41f 42f
5:30am 1 2 mph 1019.3mb 41f 42f
5:24am 1 2 mph 1019.3mb 41f 42f
5:18am 1 2 mph 1019.3mb 41f 42f
5:12am 2 3 mph 1019.2mb 41f 42f
5:06am 3 5 mph 1019.2mb 41f 43f
5:00am 2 5 mph 1019.1mb 41f 43f
4:54am 2 3 mph 1019.1mb 41f 44f
4:48am 2 5 mph 1019mb 41f 44f
4:42am 1 5 mph 1018.8mb 41f 44f
4:36am 2 5 mph 1018.7mb 41f 44f
4:30am 2 5 mph 1018.6mb 41f 44f
4:24am 2 5 mph 1018.4mb 41f 44f
4:18am 2 5 mph 1018.3mb 41f 45f
4:12am 2 5 mph 1018.2mb 41f 45f
4:06am 3 5 mph 1018.1mb 41f 45f
4:00am 2 6 mph 1017.9mb 41f 45f
3:54am 3 6 mph 1017.8mb 41f 45f
3:48am 3 6 mph 1017.6mb 41f 46f
3:42am 2 5 mph 1017.5mb 41f 46f
3:36am 3 6 mph 1017.4mb 41f 46f
3:30am 2 5 mph 1017.3mb 41f 46f
3:24am 2 6 mph 1017.2mb 41f 46f
3:18am 5 7 mph 1017.3mb 41f 46f
3:12am 2 6 mph 1017.2mb 41f 46f
3:06am 2 3 mph 1017mb 41f 46f
3:00am 2 6 mph 1016.9mb 41f 46f
2:54am 3 6 mph 1016.9mb 41f 46f
2:48am 2 5 mph 1016.8mb 41f 46f
2:42am 2 5 mph 1016.9mb 41f 46f
2:36am 2 6 mph 1016.9mb 41f 46f
2:30am 3 6 mph 1017mb 41f 46f
2:24am 3 6 mph 1016.9mb 41f 46f
2:18am 5 8 mph 1016.8mb 41f 47f
2:12am 2 5 mph 1016.8mb 41f 47f
2:06am 3 6 mph 1016.9mb 41f 47f
2:00am 6 10 mph 1016.9mb 41f 48f
1:54am 5 9 mph 1016.8mb 41f 47f
1:48am 7 13 mph 1016.8mb 41f 46f
1:42am 2 5 mph 1016.6mb 41f 45f
1:36am 3 6 mph 1016.5mb 41f 45f
1:30am 5 8 mph 1016.4mb 41f 46f
1:24am 8 11 mph 1016.3mb 41f 46f
1:18am 8 11 mph 1016.2mb 41f 46f
1:12am 8 13 mph 1016mb 41f 46f
1:06am 10 13 mph 1015.9mb 41f 47f
1:00am 11 14 mph 1015.7mb 41f 47f
12:54am 9 13 mph 1015.7mb 41f 46f
12:48am 10 15 mph 1015.7mb 41f 47f
12:42am 10 13 mph 1015.7mb 41f 47f
12:36am 10 14 mph 1015.4mb 41f 47f
12:30am 11 14 mph 1015.5mb 40f 47f
12:24am 10 13 mph 1015.3mb 40f 47f
12:18am 9 13 mph 1015.2mb 40f 47f
12:12am 10 14 mph 1015.2mb 40f 47f
12:06am 10 13 mph 1015.2mb 40f 47f
12:00am 10 13 mph 1015.2mb 40f 46f
Sun 02/19 11:54pm 9 10 mph 1015.1mb 40f 45f
11:48pm 9 10 mph 1015mb 40f 45f
11:42pm 9 10 mph 1015mb 40f 45f
11:36pm 9 10 mph 1015mb 40f 46f
11:30pm 10 13 mph 1015mb 40f 48f
11:24pm 11 15 mph 1015.1mb 40f 49f
11:18pm 11 14 mph 1015mb 40f 48f
11:12pm 15 17 mph 1015mb 40f 50f
11:06pm 10 14 mph 1015.1mb 40f 47f
11:00pm 9 13 mph 1015mb 40f 47f
10:54pm 7 9 mph 1015mb 40f 47f
10:48pm 8 10 mph 1015mb 40f 46f
10:42pm 6 7 mph 1015mb 40f 45f
10:36pm 5 6 mph 1015mb 40f 45f
10:30pm 3 5 mph 1015mb 40f 46f
10:24pm 2 3 mph 1014.9mb 40f 46f
10:18pm 3 5 mph 1014.9mb 40f 47f
10:12pm 5 6 mph 1014.9mb 40f 47f
10:06pm 6 7 mph 1014.8mb 40f 48f
10:00pm 6
mph
1014.7mb 40f 49f
9:54pm 5 6 mph 1014.6mb 40f 50f
9:48pm 5 6 mph 1014.6mb 40f 49f
9:42pm 3
mph
1014.6mb 40f 48f
9:36pm 3 5 mph 1014.6mb 40f 48f
9:30pm 3 6 mph 1014.5mb 40f 48f
9:24pm 5 6 mph 1014.5mb 40f 49f
9:18pm 5 6 mph 1014.5mb 40f 48f
9:12pm 3 5 mph 1014.4mb 40f 48f
9:06pm 5 6 mph 1014.3mb 40f 48f
9:00pm 5 6 mph 1014.3mb 40f 48f
8:54pm 5 6 mph 1014.2mb 40f 47f
8:48pm 6
mph
1014.1mb 40f 47f
8:42pm 8 9 mph 1014mb 40f 47f
8:36pm 8 9 mph 1013.9mb 40f 48f
8:30pm 10
mph
1013.8mb 40f 49f
8:24pm 10 11 mph 1013.7mb 40f 49f
8:18pm 10 11 mph 1013.6mb 40f 49f
8:12pm 8 9 mph 1013.5mb 40f 48f
8:06pm 8
mph
1013.4mb 40f 47f
8:00pm 6 7 mph 1013.3mb 40f 47f
7:54pm 6
mph
1013.2mb 40f 47f
7:48pm 6
mph
1013.1mb 40f 47f
7:42pm 5 6 mph 1013mb 40f 47f
7:36pm 5 6 mph 1013mb 40f 47f
7:30pm 5 6 mph 1012.9mb 40f 48f
7:24pm 5 6 mph 1012.9mb 40f 48f
7:18pm 5 6 mph 1012.9mb 40f 49f
7:12pm 6 8 mph 1012.8mb 40f 50f
7:06pm 6 7 mph 1012.7mb 40f 50f
7:00pm 6 7 mph 1012.7mb 40f 51f
6:54pm 7
mph
1012.7mb 40f 52f
6:48pm 8 10 mph 1012.6mb 40f 53f
6:42pm 7 9 mph 1012.5mb 40f 53f
6:36pm 7 8 mph 1012.5mb 40f 54f
6:30pm 7 9 mph 1012.4mb 40f 55f
6:24pm 7 8 mph 1012.3mb 40f 52f
6:18pm 6 7 mph 1012.4mb 40f 51f
6:12pm 5 6 mph 1012.4mb 40f 52f
6:06pm 5 6 mph 1012.4mb 40f 52f
6:00pm 5
mph
1012.3mb 40f 52f
5:54pm 5 6 mph 1012.2mb 40f 52f
5:48pm 6 7 mph 1012.2mb 40f 53f
5:42pm 5 6 mph 1012.2mb 40f 53f
5:36pm 6 7 mph 1012.2mb 40f 53f
5:30pm 6
mph
1012.1mb 40f 53f
5:24pm 6 7 mph 1012.2mb 40f 53f
5:18pm 6 7 mph 1012.1mb 41f 53f
5:12pm 6 7 mph 1012.1mb 41f 53f
5:06pm 6 8 mph 1012.1mb 41f 54f
5:00pm 5
mph
1011.9mb 41f 58f
4:54pm 3
mph
1011.8mb 41f 59f
4:48pm 3 5 mph 1011.8mb 41f 59f
4:42pm 3
mph
1011.8mb 41f 60f
4:36pm 2 3 mph 1011.7mb 41f 59f
4:30pm 3 6 mph 1011.6mb 41f 61f
4:24pm 3
mph
1011.6mb 41f 62f
4:18pm 3 5 mph 1011.5mb 41f 62f
4:12pm 3 5 mph 1011.6mb 41f 62f
4:06pm 3
mph
1011.5mb 41f 61f
4:00pm 3 5 mph 1011.6mb 41f 59f
3:54pm 3 5 mph 1011.5mb 41f 59f
3:48pm 5
mph
1011.5mb 41f 56f
3:42pm 5 6 mph 1011.5mb 41f 55f
3:36pm 6
mph
1011.5mb 41f 55f
3:30pm 6
mph
1011.4mb 41f 55f
3:24pm 6
mph
1011.4mb 42f 55f
3:18pm 6 7 mph 1011.3mb 41f 55f
3:12pm 6
mph
1011.2mb 41f 54f
3:06pm 5 7 mph 1011.2mb 41f 54f
3:00pm 6 9 mph 1011.1mb 41f 56f
2:54pm 3 5 mph 1011mb 41f 55f
2:48pm 5 6 mph 1011mb 41f 55f
2:42pm 3 6 mph 1010.9mb 41f 56f
2:36pm 3 5 mph 1010.9mb 41f 54f
2:30pm 3 6 mph 1010.8mb 42f 55f
2:24pm 3 5 mph 1010.8mb 41f 58f
2:18pm 3 7 mph 1010.7mb 41f 58f
2:12pm 6 8 mph 1010.8mb 41f 56f
2:06pm 6 8 mph 1010.8mb 41f 55f
2:00pm 3 7 mph 1010.8mb 41f 59f
1:54pm 2 7 mph 1010.7mb 41f 58f
1:48pm 2 7 mph 1010.7mb 41f 58f
1:42pm 2 6 mph 1010.8mb 41f 58f
1:36pm 6 8 mph 1010.8mb 41f 56f
1:30pm 6 7 mph 1010.8mb 41f 55f
1:24pm 5 6 mph 1010.7mb 41f 53f
1:18pm 5 6 mph 1010.6mb 41f 54f
1:12pm 5 6 mph 1010.5mb 41f 55f
1:06pm 3 6 mph 1010.6mb 41f 55f
1:00pm 3 6 mph 1010.8mb 41f 55f
12:54pm 6 7 mph 1010.9mb 41f 55f
12:48pm 6 8 mph 1011mb 41f 54f
12:42pm 5 8 mph 1010.8mb 41f 56f
12:36pm 5 7 mph 1010.9mb 41f 55f
12:30pm 6 8 mph 1011.1mb 41f 55f
12:24pm 6 8 mph 1011.2mb 40f 53f
12:18pm 6 7 mph 1011.3mb 40f 52f
12:12pm 5 8 mph 1011.3mb 40f 52f
12:06pm 6 7 mph 1011.4mb 40f 52f
12:00pm 5 7 mph 1011.4mb 40f 52f
11:54am 5 8 mph 1011.4mb 40f 52f
11:48am 5 8 mph 1011.4mb 40f 51f
11:42am 6 8 mph 1011.4mb 40f 51f
11:36am 6 8 mph 1011.5mb 40f 50f
11:30am 3 6 mph 1011.6mb 40f 48f
11:24am 3 5 mph 1011.4mb 40f 49f
11:18am 5 7 mph 1011.4mb 40f 50f
11:12am 7 8 mph 1011.4mb 40f 51f
11:06am 6 8 mph 1011.4mb 40f 50f
11:00am 6 7 mph 1011.5mb 40f 50f
10:54am 7 9 mph 1011.5mb 40f 49f
10:48am 6 8 mph 1011.5mb 40f 50f
10:42am 6 9 mph 1011.5mb 40f 50f
10:36am 6 9 mph 1011.5mb 40f 51f
10:30am 7 10 mph 1011.4mb 40f 51f
10:24am 7 10 mph 1011.4mb 40f 51f
10:18am 6 9 mph 1011.3mb 40f 50f
10:12am 6 9 mph 1011.3mb 40f 50f
10:06am 3 8 mph 1011.3mb 40f 49f
10:00am 5 8 mph 1011.2mb 40f 49f
9:54am 6 7 mph 1011.2mb 40f 49f
9:48am 7 9 mph 1011.1mb 40f 50f
9:42am 7 9 mph 1011mb 40f 51f
9:36am 8 10 mph 1010.9mb 40f 51f
9:30am 8 10 mph 1010.8mb 40f 49f
9:24am 7 9 mph 1010.7mb 40f 50f
9:18am 7 9 mph 1010.6mb 40f 50f
9:12am 7 9 mph 1010.6mb 40f 49f
9:06am 7 9 mph 1010.5mb 40f 49f
9:00am 7 10 mph 1010.6mb 40f 50f
8:54am 7 9 mph 1010.5mb 40f 50f
8:48am 7 9 mph 1010.5mb 40f 50f
8:42am 7 10 mph 1010.5mb 40f 50f
8:36am 7 8 mph 1010.5mb 40f 49f
8:30am 7 8 mph 1010.5mb 40f 49f
8:24am 6 8 mph 1010.5mb 40f 50f
8:18am 7 9 mph 1010.4mb 40f 51f
8:12am 8 10 mph 1010.4mb 40f 51f
8:06am 7 9 mph 1010.4mb 40f 51f
8:00am 6 7 mph 1010.4mb 40f 51f
7:54am 3 6 mph 1010.3mb 40f 50f
7:48am 6 7 mph 1010.2mb 40f 50f
7:42am 6 7 mph 1010.1mb 40f 50f
7:36am 5 6 mph 1010.1mb 40f 49f
7:30am 3
mph
1010mb 40f 50f
7:24am 2 3 mph 1010mb 40f 49f
7:18am  -  2 mph 1009.9mb 40f 49f
7:12am 1 2 mph 1009.8mb 40f 49f
7:06am 3 5 mph 1009.8mb 40f 49f
7:00am 6 7 mph 1009.7mb 40f 49f
6:54am 5 9 mph 1009.6mb 40f 49f
6:48am 6
mph
1009.6mb 40f 49f
6:42am 6
mph
1009.6mb 40f 49f
6:36am 6 7 mph 1009.6mb 40f 49f
6:30am 6 7 mph 1009.5mb 40f 49f
6:24am 6
mph
1009.4mb 40f 49f
6:18am 7 9 mph 1009.3mb 40f 49f
6:12am 6 8 mph 1009.3mb 40f 49f
6:06am 7 9 mph 1009.2mb 40f 50f
6:00am 7 9 mph 1009.2mb 40f 50f
5:54am 9 10 mph 1009.1mb 40f 50f
5:48am 7 8 mph 1009.1mb 40f 49f
5:42am 7 8 mph 1009.1mb 40f 49f
5:36am 6 8 mph 1009mb 40f 49f
5:30am 7 8 mph 1008.9mb 40f 49f
5:24am 7 8 mph 1008.9mb 40f 49f
5:18am 6 8 mph 1008.9mb 40f 48f
5:12am 6 7 mph 1008.8mb 40f 49f
5:06am 7 8 mph 1008.8mb 40f 49f
5:00am 9 10 mph 1008.8mb 40f 50f
4:54am 9 11 mph 1008.7mb 40f 50f
4:48am 9 11 mph 1008.5mb 40f 50f
4:42am 13 18 mph 1008.4mb 40f 51f
4:36am  -  3 mph 1007.7mb 40f 52f
4:30am  -  1 mph 1007.5mb 40f 52f
4:24am  -  1 mph 1007.3mb 40f 51f
4:18am  -  1 mph 1007.3mb 40f 51f
4:12am  -  1 mph 1007.3mb 40f 51f
4:06am  -  mph 1007.2mb 40f 51f
4:00am  -  2 mph 1007.2mb 40f 52f
3:54am  -  1 mph 1007.2mb 40f 53f
3:48am  -  1 mph 1007.3mb 40f 53f
3:42am  -  2 mph 1007.4mb 40f 51f
3:36am  -  1 mph 1007.3mb 40f 52f
3:30am 2 3 mph 1007.2mb 40f 52f
3:24am 2 6 mph 1007.3mb 40f 52f
3:18am 5 6 mph 1007.7mb 40f 52f
3:12am 5
mph
1007.8mb 40f 52f
3:06am 3 6 mph 1007.7mb 40f 51f
3:00am 5 6 mph 1007.7mb 40f 50f
2:54am 2 3 mph 1007.8mb 40f 49f
2:48am 7 9 mph 1007.9mb 40f 49f
2:42am 6 7 mph 1007.9mb 40f 50f
2:36am 6 7 mph 1007.8mb 40f 48f
2:30am 5 6 mph 1007.8mb 40f 47f
2:24am 6
mph
1007.9mb 40f 47f
2:18am 6 8 mph 1008mb 40f 47f
2:12am 8 9 mph 1008.1mb 40f 47f
2:06am 8 9 mph 1007.9mb 40f 47f
2:00am 8 9 mph 1007.9mb 40f 47f
1:54am 10 11 mph 1007.8mb 40f 47f
1:48am 9 10 mph 1007.7mb 40f 47f
1:42am 9 10 mph 1007.5mb 40f 48f
1:36am 9
mph
1007.5mb 40f 47f
1:30am 9 10 mph 1007.4mb 40f 48f
1:24am 9 10 mph 1007.4mb 40f 48f
1:18am 9 10 mph 1007.3mb 40f 49f
1:12am 11 13 mph 1007.4mb 40f 50f
1:06am 11 18 mph 1007.5mb 40f 49f
1:00am 2 6 mph 1006.8mb 40f 51f
12:54am 3 7 mph 1007mb 40f 51f
12:48am 5 8 mph 1007.2mb 40f 51f
12:42am 6 8 mph 1007.2mb 40f 50f
12:36am 6 7 mph 1007.3mb 40f 49f
12:30am 5
mph
1007.3mb 40f 48f
12:24am 6 7 mph 1007.3mb 40f 49f
12:18am 7 8 mph 1007.3mb 40f 49f
12:12am 6 8 mph 1007.4mb 40f 49f
12:06am 7 8 mph 1007.4mb 40f 49f
12:00am 7 8 mph 1007.4mb 40f 49f
Sat 02/18 11:54pm 7 8 mph 1007.4mb 40f 49f
11:48pm 8 9 mph 1007.4mb 40f 50f
11:42pm 8 9 mph 1007.3mb 40f 50f
11:36pm 8 10 mph 1007.4mb 40f 50f
11:30pm 8 10 mph 1007.4mb 40f 50f
11:24pm 10 11 mph 1007.4mb 40f 50f
11:18pm 10 13 mph 1007.4mb 40f 50f
11:12pm 9 11 mph 1007.3mb 40f 51f
11:06pm 10 14 mph 1007.2mb 40f 51f
11:00pm 10 14 mph 1007.2mb 39f 52f
10:54pm 11 15 mph 1007.2mb 39f 52f
10:48pm 10 14 mph 1007.2mb 39f 52f
10:42pm 11 14 mph 1007.2mb 39f 53f
10:36pm 13 16 mph 1007.2mb 39f 53f
10:30pm 13 14 mph 1007.1mb 39f 54f
10:24pm 13 16 mph 1007.1mb 39f 55f
10:18pm 11 16 mph 1007.1mb 39f 55f
10:12pm 11 15 mph 1007.1mb 39f 55f
10:06pm 11 15 mph 1007.1mb 39f 55f
10:00pm 11 15 mph 1007.1mb 39f 56f
9:54pm 9 11 mph 1007mb 39f 56f
9:48pm 9 13 mph 1007.1mb 39f 56f
9:42pm 9 13 mph 1007.1mb 39f 56f
9:36pm 9 13 mph 1007mb 39f 56f
9:30pm 10 14 mph 1007.1mb 39f 55f
9:24pm 9 13 mph 1007.1mb 39f 55f
9:18pm 9 14 mph 1007.2mb 39f 56f
9:12pm 8 11 mph 1007.2mb 39f 55f
9:06pm 8 13 mph 1007.3mb 39f 56f
9:00pm 10 13 mph 1007.3mb 39f 55f
8:54pm 10 14 mph 1007.3mb 39f 55f
8:48pm 9 11 mph 1007.4mb 39f 54f
8:42pm 8 10 mph 1007.4mb 39f 53f
8:36pm 7 9 mph 1007.5mb 39f 53f
8:30pm 7 9 mph 1007.5mb 39f 52f
8:24pm 6 9 mph 1007.5mb 39f 52f
8:18pm 5 7 mph 1007.5mb 39f 51f
8:12pm 3 6 mph 1007.5mb 39f 51f
8:06pm 5 6 mph 1007.4mb 39f 50f
8:00pm 5 6 mph 1007.4mb 39f 50f
7:54pm 3 6 mph 1007.5mb 39f 50f
7:48pm 6 7 mph 1007.5mb 39f 49f
7:42pm 5 6 mph 1007.6mb 39f 49f
7:36pm 5 6 mph 1007.6mb 39f 49f
7:30pm 6 7 mph 1007.6mb 39f 49f
7:24pm 6 7 mph 1007.6mb 39f 49f
7:18pm 6 7 mph 1007.6mb 39f 49f
7:12pm 6 7 mph 1007.6mb 39f 49f
7:06pm 6 7 mph 1007.6mb 39f 50f
7:00pm 6 7 mph 1007.6mb 39f 50f
6:54pm 7 9 mph 1007.6mb 39f 51f
6:48pm 7 10 mph 1007.6mb 39f 52f
6:42pm 7 9 mph 1007.5mb 39f 53f
6:36pm 7 10 mph 1007.4mb 39f 55f
6:30pm 7 9 mph 1007.5mb 39f 56f
6:24pm 6 8 mph 1007.4mb 39f 56f
6:18pm 6 9 mph 1007.3mb 39f 56f
6:12pm 8 10 mph 1007.3mb 39f 57f
6:06pm 8 13 mph 1007.3mb 39f 56f
6:00pm 7 9 mph 1007.3mb 39f 56f
5:54pm 9 13 mph 1007.2mb 39f 56f
5:48pm 8 11 mph 1007.2mb 39f 56f
5:42pm 7 11 mph 1007.2mb 39f 55f
5:36pm 7 10 mph 1007.2mb 39f 55f
5:30pm 9 11 mph 1007.1mb 39f 55f
5:24pm 11 16 mph 1007mb 39f 55f
5:18pm 9 13 mph 1007.1mb 39f 55f
5:12pm 9 11 mph 1007mb 39f 56f
5:06pm 8 10 mph 1007mb 39f 56f
5:00pm 6 7 mph 1007.1mb 39f 55f
4:54pm 7 11 mph 1007.1mb 39f 55f
4:48pm 7 9 mph 1007.1mb 39f 56f
4:42pm 7 10 mph 1007.1mb 39f 56f
4:36pm 8 13 mph 1007.1mb 39f 56f
4:30pm 7 10 mph 1007.1mb 39f 57f
4:24pm 7 9 mph 1007.1mb 39f 57f
4:18pm 7 10 mph 1007mb 39f 57f
4:12pm 9 13 mph 1007.1mb 39f 57f
4:06pm 8 10 mph 1007.1mb 39f 56f
4:00pm 7 9 mph 1007.1mb 39f 55f
3:54pm 7 9 mph 1007.2mb 39f 55f
3:48pm 8 11 mph 1007.2mb 39f 54f
3:42pm 8 10 mph 1007.2mb 39f 55f
3:36pm 8 11 mph 1007.2mb 39f 56f
3:30pm 8 13 mph 1007.2mb 40f 57f
3:24pm 9 11 mph 1007.2mb 40f 57f
3:18pm 8 13 mph 1007.1mb 40f 58f
3:12pm 7 10 mph 1007.1mb 40f 57f
3:06pm 9 11 mph 1007.1mb 40f 56f
3:00pm 8 11 mph 1007.1mb 40f 56f
2:54pm 9 15 mph 1007.1mb 40f 57f
2:48pm 8 11 mph 1007.3mb 40f 58f
2:42pm 8 10 mph 1007.3mb 40f 58f
2:36pm 6 8 mph 1007.2mb 40f 57f
2:30pm 7 11 mph 1007.3mb 40f 57f
2:24pm 9 13 mph 1007.4mb 40f 58f
2:18pm 9 11 mph 1007.5mb 40f 60f
2:12pm 6 9 mph 1007.6mb 40f 60f
2:06pm 6 10 mph 1007.6mb 40f 59f
2:00pm 7 11 mph 1007.8mb 40f 57f
1:54pm 8 13 mph 1007.9mb 40f 56f
1:48pm 8 10 mph 1008mb 40f 56f
1:42pm 6 9 mph 1008.1mb 40f 57f
1:36pm 7 9 mph 1008.1mb 40f 56f
1:30pm 8 9 mph 1008.2mb 40f 57f
1:24pm 8 11 mph 1008.4mb 40f 57f
1:18pm 8 11 mph 1008.5mb 39f 57f
1:12pm 8 9 mph 1008.6mb 39f 56f
1:06pm 7 9 mph 1008.7mb 39f 56f
1:00pm 7 9 mph 1008.8mb 39f 55f
12:54pm 8 10 mph 1008.9mb 39f 55f
12:48pm 7 9 mph 1009mb 39f 55f
12:42pm 7 10 mph 1009.3mb 39f 55f
12:36pm 6 8 mph 1009.5mb 39f 51f
12:30pm 6 7 mph 1009.6mb 39f 48f
12:24pm 6 7 mph 1009.6mb 39f 47f
12:18pm 6 7 mph 1009.8mb 39f 48f
12:12pm 5 6 mph 1009.8mb 39f 49f
12:06pm 3 5 mph 1009.9mb 39f 47f
12:00pm 2
mph
1010.1mb 39f 47f
11:54am 2
mph
1010.2mb 39f 49f
11:48am 2
mph
1010.3mb 39f 49f
11:42am 2 3 mph 1010.4mb 39f 48f
11:36am 3
mph
1010.5mb 39f 47f
11:30am 2 3 mph 1010.6mb 39f 47f
11:24am 3 5 mph 1010.7mb 39f 47f
11:18am 2 3 mph 1010.9mb 39f 47f
11:12am 3 5 mph 1010.8mb 39f 47f
11:06am 3
mph
1010.8mb 39f 46f
11:00am 2
mph
1010.9mb 39f 47f
10:54am 1 2 mph 1011mb 39f 46f
10:48am 3
mph
1011.2mb 39f 47f
10:42am 3 5 mph 1011.2mb 39f 46f
10:36am 2 3 mph 1011.1mb 39f 46f
10:30am 2 3 mph 1011.2mb 39f 45f
10:24am 3 5 mph 1011.5mb 39f 45f
10:18am 2 3 mph 1011.9mb 39f 44f
10:12am 5 6 mph 1011.9mb 38f 44f
10:06am 3 5 mph 1011.9mb 38f 43f
10:00am 3 6 mph 1012.1mb 38f 43f
9:54am 5 6 mph 1012.2mb 38f 42f
9:48am 2 3 mph 1012.3mb 38f 44f
9:42am 3 5 mph 1012.5mb 38f 44f
9:36am 5
mph
1012.5mb 38f 43f
9:30am 5
mph
1012.5mb 38f 42f
9:24am 7
mph
1012.6mb 38f 44f
9:18am 6
mph
1012.4mb 38f 44f
9:12am 6 7 mph 1012.4mb 38f 44f
9:06am 6 7 mph 1012.4mb 38f 43f
9:00am 8 10 mph 1012.5mb 38f 43f
8:54am 8 10 mph 1012.5mb 38f 43f
8:48am 7 8 mph 1012.4mb 38f 44f
8:42am 7 9 mph 1012.3mb 38f 44f
8:36am 9 11 mph 1012.3mb 38f 44f
8:30am 9 13 mph 1012.2mb 38f 44f
8:24am 8 13 mph 1012.1mb 38f 45f
8:18am 9 11 mph 1012.1mb 38f 45f
8:12am 9 11 mph 1011.8mb 38f 44f
8:06am 10 13 mph 1011.8mb 38f 44f
8:00am 9 13 mph 1011.9mb 38f 44f
7:54am 10 15 mph 1011.8mb 38f 43f
7:48am 9 11 mph 1011.7mb 38f 43f
7:42am 7 9 mph 1011.6mb 38f 43f
7:36am 8 15 mph 1011.7mb 38f 43f
7:30am 8 10 mph 1011.4mb 38f 42f
7:24am 9 14 mph 1011.2mb 38f 42f
7:18am 9 11 mph 1011.3mb 38f 42f
7:12am 9 13 mph 1011.3mb 38f 42f
7:06am 7 10 mph 1011.2mb 38f 41f
7:00am 7 10 mph 1011.2mb 38f 41f
6:54am 6 8 mph 1011.2mb 38f 40f
6:48am 6 9 mph 1011.3mb 38f 40f
6:42am 7 8 mph 1011.3mb 38f 40f
6:36am 7 9 mph 1011.3mb 38f 40f
6:30am 7 9 mph 1011.4mb 38f 40f
6:24am 7 9 mph 1011.4mb 38f 40f
6:18am 7 8 mph 1011.4mb 38f 39f
6:12am 6 8 mph 1011.4mb 38f 39f
6:06am 6 7 mph 1011.4mb 38f 39f
6:00am 6 7 mph 1011.4mb 38f 39f
5:54am 6
mph
1011.5mb 38f 38f
5:48am 6 7 mph 1011.5mb 38f 38f
5:42am 6
mph
1011.5mb 38f 38f
5:36am 6 7 mph 1011.6mb 38f 38f
5:30am 5 6 mph 1011.6mb 38f 38f
5:24am 5 6 mph 1011.6mb 38f 38f
5:18am 5 7 mph 1011.6mb 38f 38f
5:12am 5 6 mph 1011.5mb 38f 38f
5:06am 5 6 mph 1011.6mb 38f 37f
5:00am 5 6 mph 1011.7mb 38f 37f
4:54am 5 6 mph 1011.7mb 38f 37f
4:48am 6 7 mph 1011.6mb 38f 37f
4:42am 6 8 mph 1011.6mb 38f 37f
4:36am 5 6 mph 1011.8mb 38f 36f
4:30am 5 6 mph 1011.8mb 38f 36f
4:24am 6 7 mph 1011.9mb 38f 36f
4:18am 6 7 mph 1012mb 38f 37f
4:12am 5 6 mph 1012mb 38f 36f
4:06am 6 7 mph 1011.9mb 38f 36f
4:00am 7
mph
1011.8mb 38f 36f
3:54am 6
mph
1011.9mb 38f 37f
3:48am 5
mph
1011.9mb 38f 36f
3:42am 5 6 mph 1011.9mb 38f 36f
3:36am 6 7 mph 1011.9mb 38f 36f
3:30am 6 7 mph 1012mb 38f 37f
3:24am 5 6 mph 1012.1mb 38f 36f
3:18am 6
mph
1012.1mb 38f 36f
3:12am 5 7 mph 1012mb 38f 36f
3:06am 5 6 mph 1012.1mb 38f 35f
3:00am 5
mph
1012.2mb 38f 36f
2:54am 5 6 mph 1012.1mb 38f 35f
2:48am 5 6 mph 1012.1mb 38f 36f
2:42am 5 7 mph 1012.2mb 38f 36f
2:36am 5 6 mph 1012.3mb 38f 36f
2:30am 5
mph
1012.4mb 38f 36f
2:24am 5
mph
1012.4mb 38f 35f
2:18am 3 5 mph 1012.4mb 38f 34f
2:12am 3 5 mph 1012.4mb 38f 35f
2:06am 3 5 mph 1012.5mb 38f 35f
2:00am 3 5 mph 1012.5mb 38f 36f
1:54am 3 5 mph 1012.5mb 38f 37f
1:48am 5 6 mph 1012.5mb 38f -
1:42am 3
mph
1012.7mb 38f -
1:36am 2 3 mph 1012.7mb 38f -
1:30am 3 6 mph 1012.7mb 38f 38f
1:24am 6 7 mph 1012.9mb 38f 38f
1:18am 5 6 mph 1012.8mb 38f 38f
1:12am 5 6 mph 1012.8mb 38f 38f
1:06am 5 7 mph 1012.8mb 38f 38f
1:00am 5 7 mph 1012.8mb 38f 38f
12:54am 3 6 mph 1012.8mb 38f 36f
12:48am 2 3 mph 1012.7mb 38f 37f
12:42am 3 5 mph 1012.9mb 38f 38f
12:36am 5 6 mph 1013mb 38f 38f
12:30am 5 7 mph 1013mb 38f 35f
12:24am 3 5 mph 1013mb 38f 35f
12:18am 3 5 mph 1013.1mb 38f 37f
12:12am 5 7 mph 1013.1mb 38f 38f
12:06am 5 7 mph 1013.2mb 38f 37f
12:00am 5 6 mph 1013.3mb 38f 37f
Fri 02/17 11:54pm 5 7 mph 1013.3mb 38f 36f
11:48pm 3 6 mph 1013.2mb 38f 36f
11:42pm 5 6 mph 1013.3mb 38f 36f
11:36pm 5 6 mph 1013.4mb 38f 35f
11:30pm 3 5 mph 1013.4mb 38f 35f
11:24pm 3
mph
1013.6mb 38f 36f
11:18pm 3 5 mph 1013.6mb 38f 36f
11:12pm 3 5 mph 1013.7mb 38f 37f
11:06pm 3 5 mph 1013.6mb 38f 36f
11:00pm 3 6 mph 1013.5mb 38f 38f
10:54pm 5 6 mph 1013.6mb 38f 38f
10:48pm 5 7 mph 1013.7mb 38f 37f
10:42pm 5 7 mph 1013.7mb 38f 37f
10:36pm 5 7 mph 1013.7mb 38f 36f
10:30pm 2
mph
1013.8mb 38f 34f
10:24pm 2 5 mph 1013.8mb 38f 34f
10:18pm 3
mph
1013.7mb 38f 34f
10:12pm 2 3 mph 1013.8mb 37f 35f
10:06pm 3
mph
1013.7mb 37f 35f
10:00pm 3 5 mph 1013.8mb 37f 34f
9:54pm 2 3 mph 1013.7mb 37f 33f
9:48pm 3
mph
1013.6mb 37f 32f
9:42pm 2
mph
1013.5mb 37f 34f
9:36pm 3
mph
1013.4mb 37f 33f
9:30pm 1 2 mph 1013.5mb 37f 33f
9:24pm 2
mph
1013.6mb 37f 34f
9:18pm 1
mph
1013.7mb 37f 35f
9:12pm 2
mph
1013.7mb 37f 35f
9:06pm  -  2 mph 1013.7mb 37f 34f
9:00pm 3 5 mph 1013.7mb 37f 34f
8:54pm 1 2 mph 1013.6mb 37f 33f
8:48pm 1 2 mph 1013.4mb 37f 34f
8:42pm 3 5 mph 1013.4mb 37f 33f
8:36pm 1
mph
1013.4mb 37f 33f
8:30pm 1 2 mph 1013.4mb 37f 32f
8:24pm  -  1 mph 1013.4mb 37f 32f
8:18pm  -  mph 1013.4mb 37f 33f
8:12pm  -  mph 1013.3mb 37f 36f
8:06pm  -  mph 1013.1mb 37f 34f
8:00pm  -  mph 1013.1mb 37f 35f
7:54pm 2
mph
1013mb 37f 34f
7:48pm 3
mph
1012.9mb 37f 32f
7:42pm 3 5 mph 1012.9mb 37f 33f
7:36pm 3
mph
1012.9mb 37f 33f
7:30pm 1
mph
1012.9mb 37f 33f
7:24pm  -  mph 1012.8mb 37f 35f
7:18pm  -  1 mph 1012.8mb 37f 34f
7:12pm  -  1 mph 1012.8mb 37f 34f
7:06pm  -  1 mph 1012.8mb 37f 35f
7:00pm  -  1 mph 1012.7mb 37f 36f
6:54pm  -  1 mph 1012.8mb 37f 34f
6:48pm 1
mph
1012.8mb 37f 37f
6:42pm  -  1 mph 1012.7mb 37f 36f
6:36pm 1
mph
1012.7mb 37f 35f
6:30pm  -  1 mph 1012.8mb 37f 36f
6:24pm 1 2 mph 1012.8mb 37f 37f
6:18pm 2 3 mph 1012.7mb 37f 38f
6:12pm 2
mph
1012.7mb 37f 38f
6:06pm 1 2 mph 1012.7mb 37f 38f
6:00pm  -  3 mph 1012.6mb 37f 38f
5:54pm 2 3 mph 1012.3mb 37f 38f